createdAt,value
2022-11-30T00:00:41.668Z,7.10
2022-11-30T00:03:08.700Z,7.10
2022-11-30T00:05:35.552Z,7.10
2022-11-30T00:08:02.246Z,7.00
2022-11-30T00:10:29.002Z,7.00
2022-11-30T00:12:55.747Z,7.00
2022-11-30T00:15:22.580Z,7.00
2022-11-30T00:17:49.342Z,6.90
2022-11-30T00:20:16.429Z,7.00
2022-11-30T00:22:43.231Z,7.00
2022-11-30T00:25:10.373Z,6.90
2022-11-30T00:27:37.225Z,6.90
2022-11-30T00:30:04.447Z,6.90
2022-11-30T00:32:31.311Z,6.90
2022-11-30T00:34:58.109Z,6.90
2022-11-30T00:37:24.929Z,6.90
2022-11-30T00:39:51.633Z,7.00
2022-11-30T00:42:18.582Z,6.90
2022-11-30T00:44:45.689Z,6.90
2022-11-30T00:47:12.800Z,7.00
2022-11-30T00:49:39.622Z,6.90
2022-11-30T00:52:06.509Z,6.90
2022-11-30T00:54:33.262Z,6.90
2022-11-30T00:57:00.102Z,6.90
2022-11-30T00:59:26.802Z,6.90
2022-11-30T01:01:54.964Z,6.90
2022-11-30T01:04:21.915Z,6.90
2022-11-30T01:06:48.638Z,6.90
2022-11-30T01:09:15.369Z,6.90
2022-11-30T01:11:42.107Z,6.90
2022-11-30T01:14:08.908Z,6.80
2022-11-30T01:16:35.658Z,6.80
2022-11-30T01:19:03.610Z,6.80
2022-11-30T01:21:30.496Z,6.80
2022-11-30T01:23:57.260Z,6.90
2022-11-30T01:26:24.943Z,6.80
2022-11-30T01:28:56.141Z,6.80
2022-11-30T01:31:24.718Z,6.70
2022-11-30T01:33:53.292Z,6.80
2022-11-30T01:36:23.569Z,6.80
2022-11-30T01:38:52.988Z,6.80
2022-11-30T01:41:26.215Z,6.80
2022-11-30T01:43:55.388Z,6.80
2022-11-30T01:46:54.211Z,6.80
2022-11-30T01:49:34.880Z,6.80
2022-11-30T01:52:12.700Z,6.90
2022-11-30T01:54:55.039Z,6.70
2022-11-30T01:57:48.977Z,6.90
2022-11-30T02:00:16.580Z,6.90
2022-11-30T02:02:46.903Z,6.80
2022-11-30T02:05:15.802Z,6.80
2022-11-30T02:07:43.279Z,6.70
2022-11-30T02:10:25.998Z,6.70
2022-11-30T02:13:04.388Z,6.80
2022-11-30T02:15:42.015Z,6.80
2022-11-30T02:18:15.167Z,6.90
2022-11-30T02:20:58.000Z,6.90
2022-11-30T02:23:43.313Z,6.90
2022-11-30T02:26:26.420Z,7.00
2022-11-30T02:30:03.524Z,7.00
2022-11-30T02:32:45.592Z,6.90
2022-11-30T02:35:15.046Z,6.90
2022-11-30T02:37:42.974Z,6.90
2022-11-30T02:40:21.169Z,6.80
2022-11-30T02:42:50.385Z,6.70
2022-11-30T02:45:19.179Z,6.70
2022-11-30T02:47:55.322Z,6.70
2022-11-30T02:50:28.291Z,6.70
2022-11-30T02:52:55.102Z,6.60
2022-11-30T02:55:22.289Z,6.70
2022-11-30T02:57:49.034Z,6.70
2022-11-30T03:00:16.301Z,6.60
2022-11-30T03:02:43.170Z,6.60
2022-11-30T03:05:10.293Z,6.60
2022-11-30T03:07:37.394Z,6.60
2022-11-30T03:10:05.562Z,6.70
2022-11-30T03:12:32.481Z,6.90
2022-11-30T03:14:59.255Z,6.90
2022-11-30T03:17:25.999Z,6.70
2022-11-30T03:19:52.787Z,6.90
2022-11-30T03:22:19.552Z,6.90
2022-11-30T03:24:46.581Z,6.80
2022-11-30T03:27:13.827Z,6.90
2022-11-30T03:29:40.735Z,6.70
2022-11-30T03:32:07.905Z,6.70
2022-11-30T03:34:34.635Z,6.80
2022-11-30T03:37:01.451Z,6.70
2022-11-30T03:39:28.239Z,6.70
2022-11-30T03:41:55.090Z,6.70
2022-11-30T03:44:21.964Z,6.70
2022-11-30T03:46:48.964Z,6.70
2022-11-30T03:49:15.740Z,6.70
2022-11-30T03:51:42.446Z,6.80
2022-11-30T03:54:09.119Z,6.80
2022-11-30T03:56:35.831Z,6.80
2022-11-30T03:59:02.600Z,6.70
2022-11-30T04:01:29.406Z,6.70
2022-11-30T04:03:56.197Z,6.60
2022-11-30T04:06:22.995Z,6.70
2022-11-30T04:08:50.068Z,6.70
2022-11-30T04:11:17.031Z,6.70
2022-11-30T04:13:43.859Z,6.80
2022-11-30T04:16:11.166Z,6.70
2022-11-30T04:18:38.766Z,6.70
2022-11-30T04:21:07.222Z,6.70
2022-11-30T04:23:38.690Z,6.70
2022-11-30T04:26:07.659Z,6.70
2022-11-30T04:28:35.235Z,6.70
2022-11-30T04:31:02.836Z,6.60
2022-11-30T04:33:30.478Z,6.60
2022-11-30T04:35:59.643Z,6.60
2022-11-30T04:38:27.442Z,6.70
2022-11-30T04:40:54.433Z,6.80
2022-11-30T04:43:21.468Z,6.70
2022-11-30T04:45:48.930Z,6.70
2022-11-30T04:48:17.212Z,6.70
2022-11-30T04:50:44.470Z,6.70
2022-11-30T04:53:11.903Z,6.70
2022-11-30T04:55:38.711Z,6.70
2022-11-30T04:58:06.575Z,6.80
2022-11-30T05:00:34.022Z,6.90
2022-11-30T05:03:00.877Z,6.80
2022-11-30T05:05:27.969Z,6.80
2022-11-30T05:07:59.338Z,6.80
2022-11-30T05:10:28.153Z,6.80
2022-11-30T05:12:57.237Z,6.80
2022-11-30T05:15:24.072Z,6.80
2022-11-30T05:17:50.910Z,6.80
2022-11-30T05:20:17.696Z,6.80
2022-11-30T05:22:44.495Z,6.80
2022-11-30T05:25:11.432Z,6.80
2022-11-30T05:27:38.380Z,6.80
2022-11-30T05:30:05.918Z,6.80
2022-11-30T05:32:33.029Z,6.80
2022-11-30T05:34:59.988Z,6.80
2022-11-30T05:37:26.874Z,6.80
2022-11-30T05:39:53.765Z,6.80
2022-11-30T05:42:20.680Z,6.80
2022-11-30T05:44:48.210Z,6.80
2022-11-30T05:47:15.522Z,6.80
2022-11-30T05:49:42.328Z,6.80
2022-11-30T05:52:09.123Z,6.80
2022-11-30T05:54:35.848Z,6.90
2022-11-30T05:57:02.652Z,6.90
2022-11-30T05:59:29.422Z,6.90
2022-11-30T06:01:56.317Z,6.90
2022-11-30T06:04:23.296Z,6.80
2022-11-30T06:06:52.187Z,6.80
2022-11-30T06:09:18.920Z,6.80
2022-11-30T06:11:45.657Z,6.90
2022-11-30T06:14:12.515Z,6.80
2022-11-30T06:16:39.948Z,6.80
2022-11-30T06:19:06.777Z,6.80
2022-11-30T06:21:33.817Z,6.90
2022-11-30T06:24:01.101Z,6.90
2022-11-30T06:26:27.862Z,6.80
2022-11-30T06:28:54.567Z,6.80
2022-11-30T06:31:21.449Z,6.80
2022-11-30T06:33:48.314Z,6.80
2022-11-30T06:36:20.889Z,6.90
2022-11-30T06:38:47.606Z,7.00
2022-11-30T06:41:14.468Z,7.00
2022-11-30T06:43:41.362Z,7.10
2022-11-30T06:46:08.643Z,7.00
2022-11-30T06:48:36.362Z,6.90
2022-11-30T06:51:06.779Z,6.90
2022-11-30T06:53:33.705Z,6.90
2022-11-30T06:56:09.634Z,6.90
2022-11-30T06:58:39.163Z,7.00
2022-11-30T07:01:08.047Z,7.00
2022-11-30T07:03:34.830Z,6.90
2022-11-30T07:06:05.817Z,6.90
2022-11-30T07:08:32.548Z,6.90
2022-11-30T07:10:59.768Z,6.90
2022-11-30T07:13:26.479Z,7.00
2022-11-30T07:15:53.229Z,7.10
2022-11-30T07:18:19.980Z,7.10
2022-11-30T07:20:46.702Z,7.00
2022-11-30T07:23:32.049Z,7.10
2022-11-30T07:26:12.125Z,6.90
2022-11-30T07:28:40.985Z,6.90
2022-11-30T07:31:25.834Z,7.00
2022-11-30T07:33:57.175Z,7.00
2022-11-30T07:36:29.593Z,7.00
2022-11-30T07:38:56.585Z,7.00
2022-11-30T07:41:24.009Z,7.10
2022-11-30T07:44:27.983Z,7.00
2022-11-30T07:49:56.091Z,7.00
2022-11-30T07:52:22.981Z,6.90
2022-11-30T07:54:49.995Z,6.80
2022-11-30T07:57:16.955Z,6.80
2022-11-30T07:59:43.730Z,6.90
2022-11-30T08:02:11.072Z,6.70
2022-11-30T08:04:37.985Z,6.80
2022-11-30T08:07:04.757Z,6.80
2022-11-30T08:09:31.486Z,6.80
2022-11-30T08:11:58.273Z,6.70
2022-11-30T08:14:25.032Z,6.70
2022-11-30T08:16:51.938Z,6.70
2022-11-30T08:19:18.792Z,6.70
2022-11-30T08:21:45.656Z,6.70
2022-11-30T08:24:13.947Z,6.80
2022-11-30T08:26:41.281Z,6.80
2022-11-30T08:29:11.532Z,6.90
2022-11-30T08:31:39.474Z,6.80
2022-11-30T08:34:09.754Z,6.90
2022-11-30T08:36:37.264Z,6.80
2022-11-30T08:39:05.853Z,6.80
2022-11-30T08:41:33.669Z,6.90
2022-11-30T08:44:00.901Z,6.90
2022-11-30T08:46:50.411Z,6.90
2022-11-30T08:49:23.890Z,7.00
2022-11-30T08:54:42.338Z,7.10
2022-11-30T08:57:09.181Z,7.20
2022-11-30T08:59:35.908Z,7.30
2022-11-30T09:02:02.867Z,7.20
2022-11-30T09:04:30.154Z,7.10
2022-11-30T09:06:59.032Z,7.10
2022-11-30T09:09:26.323Z,7.10
2022-11-30T09:11:53.154Z,7.00
2022-11-30T09:14:19.876Z,7.10
2022-11-30T09:16:46.695Z,7.00
2022-11-30T09:19:13.551Z,7.00
2022-11-30T09:21:40.360Z,7.00
2022-11-30T09:24:07.461Z,6.90
2022-11-30T09:26:34.191Z,7.00
2022-11-30T09:29:00.936Z,6.90
2022-11-30T09:31:28.915Z,7.00
2022-11-30T09:33:57.898Z,6.90
2022-11-30T09:36:27.364Z,6.90
2022-11-30T09:38:55.674Z,7.00
2022-11-30T09:41:40.274Z,7.10
2022-11-30T09:44:49.309Z,7.00
2022-11-30T09:47:16.257Z,7.00
2022-11-30T09:49:45.949Z,7.00
2022-11-30T09:52:41.574Z,6.90
2022-11-30T09:55:11.903Z,6.90
2022-11-30T09:57:49.814Z,6.90
2022-11-30T10:00:21.816Z,7.00
2022-11-30T10:02:53.789Z,7.00
2022-11-30T10:05:39.558Z,7.00
2022-11-30T10:08:30.418Z,7.00
2022-11-30T10:11:22.206Z,6.90
2022-11-30T10:14:07.050Z,7.10
2022-11-30T10:16:48.882Z,6.90
2022-11-30T10:19:57.619Z,7.00
2022-11-30T10:22:40.117Z,7.00
2022-11-30T10:25:23.313Z,7.10
2022-11-30T10:28:45.127Z,7.00
2022-11-30T10:31:01.599Z,7.00
2022-11-30T10:33:38.792Z,7.10
2022-11-30T10:36:29.473Z,7.20
2022-11-30T10:39:01.009Z,7.10
2022-11-30T10:41:44.426Z,7.00
2022-11-30T10:44:34.318Z,7.10
2022-11-30T10:47:11.284Z,7.20
2022-11-30T10:49:38.557Z,7.20
2022-11-30T10:52:08.792Z,7.10
2022-11-30T10:54:36.845Z,7.00
2022-11-30T10:57:06.517Z,7.10
2022-11-30T10:59:53.236Z,7.00
2022-11-30T11:02:40.079Z,7.00
2022-11-30T11:05:16.020Z,7.00
2022-11-30T11:07:50.741Z,6.90
2022-11-30T11:10:20.632Z,7.00
2022-11-30T11:12:51.270Z,7.10
2022-11-30T11:15:30.211Z,7.10
2022-11-30T11:18:22.636Z,7.20
2022-11-30T11:21:04.165Z,7.30
2022-11-30T11:23:34.804Z,7.10
2022-11-30T11:26:01.838Z,7.10
2022-11-30T11:28:29.342Z,7.10
2022-11-30T11:30:58.356Z,7.20
2022-11-30T11:33:27.627Z,7.20
2022-11-30T11:36:14.980Z,7.10
2022-11-30T11:38:48.473Z,7.20
2022-11-30T11:41:26.666Z,7.10
2022-11-30T11:44:11.772Z,7.10
2022-11-30T11:46:56.632Z,7.00
2022-11-30T11:49:32.440Z,6.90
2022-11-30T11:52:11.385Z,7.10
2022-11-30T11:55:18.842Z,7.00
2022-11-30T11:57:58.790Z,7.10
2022-11-30T12:00:26.096Z,7.00
2022-11-30T12:03:23.044Z,7.10
2022-11-30T12:05:56.621Z,7.10
2022-11-30T12:08:47.890Z,7.10
2022-11-30T12:11:23.208Z,7.00
2022-11-30T12:13:50.383Z,7.10
2022-11-30T12:16:24.993Z,7.10
2022-11-30T12:19:28.798Z,7.10
2022-11-30T12:22:10.354Z,7.20
2022-11-30T12:25:18.204Z,7.30
2022-11-30T12:27:54.120Z,7.30
2022-11-30T12:30:50.125Z,7.30
2022-11-30T12:33:38.906Z,7.30
2022-11-30T12:36:20.466Z,7.30
2022-11-30T12:38:53.600Z,7.30
2022-11-30T12:41:31.346Z,7.30
2022-11-30T12:44:10.990Z,7.30
2022-11-30T12:47:18.092Z,7.20
2022-11-30T12:50:08.505Z,7.10
2022-11-30T12:52:48.792Z,7.10
2022-11-30T12:55:48.403Z,6.90
2022-11-30T12:58:19.399Z,6.90
2022-11-30T13:00:57.380Z,6.90
2022-11-30T13:03:34.927Z,6.80
2022-11-30T13:06:09.585Z,6.80
2022-11-30T13:08:45.407Z,7.00
2022-11-30T13:11:23.312Z,7.00
2022-11-30T13:13:54.136Z,7.10
2022-11-30T13:16:24.300Z,7.10
2022-11-30T13:18:52.716Z,7.10
2022-11-30T13:21:32.744Z,7.00
2022-11-30T13:24:19.729Z,6.90
2022-11-30T13:26:57.024Z,6.80
2022-11-30T13:29:42.708Z,6.70
2022-11-30T13:32:33.908Z,6.70
2022-11-30T13:35:27.829Z,6.70
2022-11-30T13:41:04.810Z,6.80
2022-11-30T13:43:36.824Z,6.70
2022-11-30T13:46:14.815Z,6.80
2022-11-30T13:48:44.073Z,6.70
2022-11-30T13:51:12.171Z,6.70
2022-11-30T13:53:39.898Z,6.70
2022-11-30T13:56:34.658Z,6.70
2022-11-30T13:59:23.703Z,6.80
2022-11-30T14:02:13.960Z,6.70
2022-11-30T14:04:47.666Z,6.70
2022-11-30T14:07:37.718Z,6.80
2022-11-30T14:10:27.314Z,6.70
2022-11-30T14:13:05.732Z,6.50
2022-11-30T14:15:38.236Z,6.60
2022-11-30T14:18:07.751Z,6.60
2022-11-30T14:20:43.028Z,6.60
2022-11-30T14:23:17.277Z,6.50
2022-11-30T14:25:49.988Z,6.60
2022-11-30T14:28:21.391Z,6.60
2022-11-30T14:30:49.310Z,6.60
2022-11-30T14:33:38.387Z,6.70
2022-11-30T14:36:08.444Z,6.60
2022-11-30T14:38:41.267Z,6.50
2022-11-30T14:41:24.667Z,6.50
2022-11-30T14:44:16.253Z,6.50
2022-11-30T14:46:43.178Z,6.50
2022-11-30T14:49:17.221Z,6.50
2022-11-30T14:51:47.432Z,6.40
2022-11-30T14:54:26.627Z,6.40
2022-11-30T14:59:51.562Z,6.50
2022-11-30T15:02:26.220Z,6.50
2022-11-30T15:04:55.651Z,6.40
2022-11-30T15:07:23.726Z,6.40
2022-11-30T15:09:57.902Z,6.40
2022-11-30T15:12:27.482Z,6.40
2022-11-30T15:15:05.250Z,6.50
2022-11-30T15:17:32.760Z,6.40
2022-11-30T15:19:59.898Z,6.40
2022-11-30T15:22:34.521Z,6.40
2022-11-30T15:25:01.855Z,6.40
2022-11-30T15:27:30.917Z,6.40
2022-11-30T15:30:00.765Z,6.40
2022-11-30T15:32:28.895Z,6.40
2022-11-30T15:35:01.236Z,6.40
2022-11-30T15:37:34.656Z,6.50
2022-11-30T15:40:06.198Z,6.40
2022-11-30T15:42:40.762Z,6.40
2022-11-30T15:45:21.403Z,6.50
2022-11-30T15:47:51.176Z,6.50
2022-11-30T15:50:47.443Z,6.50
2022-11-30T15:53:30.482Z,6.60
2022-11-30T15:56:09.273Z,6.50
2022-11-30T15:58:46.175Z,6.50
2022-11-30T16:01:20.799Z,6.50
2022-11-30T16:03:58.559Z,6.50
2022-11-30T16:06:30.591Z,6.50
2022-11-30T16:08:59.754Z,6.50
2022-11-30T16:11:27.303Z,6.50
2022-11-30T16:13:54.229Z,6.50
2022-11-30T16:16:33.151Z,6.50
2022-11-30T16:19:02.385Z,6.50
2022-11-30T16:21:29.710Z,6.50
2022-11-30T16:23:56.764Z,6.60
2022-11-30T16:26:43.511Z,6.50
2022-11-30T16:29:12.264Z,6.50
2022-11-30T16:31:39.370Z,6.50
2022-11-30T16:34:10.311Z,6.50
2022-11-30T16:36:39.047Z,6.50
2022-11-30T16:39:06.703Z,6.50
2022-11-30T16:41:35.996Z,6.50
2022-11-30T16:44:03.429Z,6.50
2022-11-30T16:46:31.531Z,6.50
2022-11-30T16:48:58.496Z,6.50
2022-11-30T16:51:31.601Z,6.60
2022-11-30T16:53:59.198Z,6.60
2022-11-30T16:56:28.015Z,6.60
2022-11-30T16:58:55.036Z,6.80
2022-11-30T17:01:36.069Z,6.80
2022-11-30T17:04:21.132Z,6.90
2022-11-30T17:06:52.773Z,6.80
2022-11-30T17:09:23.489Z,6.90
2022-11-30T17:11:51.286Z,6.80
2022-11-30T17:14:25.345Z,6.80
2022-11-30T17:16:53.557Z,6.80
2022-11-30T17:19:21.039Z,6.90
2022-11-30T17:21:51.100Z,6.90
2022-11-30T17:24:18.237Z,6.90
2022-11-30T17:26:46.215Z,6.80
2022-11-30T17:29:13.127Z,6.90
2022-11-30T17:31:40.006Z,6.80
2022-11-30T17:34:08.661Z,6.80
2022-11-30T17:36:35.687Z,6.80
2022-11-30T17:39:07.869Z,6.90
2022-11-30T17:41:35.286Z,6.70
2022-11-30T17:44:02.845Z,6.70
2022-11-30T17:46:29.972Z,6.70
2022-11-30T17:48:58.692Z,6.70
2022-11-30T17:51:27.675Z,6.70
2022-11-30T17:53:57.828Z,6.70
2022-11-30T17:56:26.135Z,6.70
2022-11-30T17:58:53.466Z,6.80
2022-11-30T18:01:26.146Z,6.80
2022-11-30T18:03:53.968Z,6.90
2022-11-30T18:06:20.843Z,6.90
2022-11-30T18:08:48.002Z,6.90
2022-11-30T18:11:20.633Z,6.90
2022-11-30T18:13:48.527Z,7.00
2022-11-30T18:16:21.448Z,7.00
2022-11-30T18:18:49.008Z,6.90
2022-11-30T18:21:18.430Z,7.00
2022-11-30T18:23:45.552Z,7.00
2022-11-30T18:26:15.458Z,7.00
2022-11-30T18:28:42.767Z,7.00
2022-11-30T18:31:09.933Z,6.90
2022-11-30T18:33:37.793Z,6.90
2022-11-30T18:36:08.875Z,6.90
2022-11-30T18:38:38.443Z,7.00
2022-11-30T18:41:06.597Z,6.90
2022-11-30T18:43:34.193Z,6.90
2022-11-30T18:46:05.555Z,6.80
2022-11-30T18:48:32.503Z,6.80
2022-11-30T18:54:04.586Z,6.90
2022-11-30T18:56:33.928Z,6.80
2022-11-30T18:59:03.892Z,6.90
2022-11-30T19:01:32.077Z,6.90
2022-11-30T19:04:01.509Z,6.90
2022-11-30T19:06:29.979Z,6.90
2022-11-30T19:09:00.115Z,6.90
2022-11-30T19:11:27.349Z,6.90
2022-11-30T19:13:56.357Z,7.00
2022-11-30T19:16:24.767Z,6.90
2022-11-30T19:18:52.245Z,6.90
2022-11-30T19:21:21.033Z,7.00
2022-11-30T19:23:48.208Z,6.90
2022-11-30T19:26:15.472Z,7.00
2022-11-30T19:28:44.139Z,6.90
2022-11-30T19:31:13.898Z,6.90
2022-11-30T19:33:43.154Z,6.80
2022-11-30T19:36:17.493Z,6.80
2022-11-30T19:38:45.015Z,6.70
2022-11-30T19:41:13.675Z,6.70
2022-11-30T19:43:41.203Z,6.80
2022-11-30T19:46:10.136Z,6.80
2022-11-30T19:48:37.462Z,6.80
2022-11-30T19:51:06.967Z,6.70
2022-11-30T19:53:34.457Z,6.70
2022-11-30T19:56:19.568Z,6.70
2022-11-30T19:58:46.557Z,6.80
2022-11-30T20:01:19.596Z,6.80
2022-11-30T20:03:46.536Z,6.70
2022-11-30T20:06:13.456Z,6.70
2022-11-30T20:08:40.835Z,6.80
2022-11-30T20:11:09.591Z,6.80
2022-11-30T20:13:36.822Z,6.80
2022-11-30T20:16:09.424Z,6.70
2022-11-30T20:18:39.076Z,6.90
2022-11-30T20:21:16.208Z,7.00
2022-11-30T20:23:44.657Z,6.80
2022-11-30T20:26:16.756Z,6.90
2022-11-30T20:28:43.876Z,6.80
2022-11-30T20:31:12.297Z,6.80
2022-11-30T20:33:39.501Z,6.90
2022-11-30T20:36:08.915Z,6.90
2022-11-30T20:38:36.240Z,6.80
2022-11-30T20:41:03.642Z,6.90
2022-11-30T20:43:30.654Z,6.90
2022-11-30T20:45:57.544Z,7.00
2022-11-30T20:48:24.392Z,7.00
2022-11-30T20:51:14.092Z,7.00
2022-11-30T20:53:38.220Z,7.00
2022-11-30T20:56:05.617Z,7.00
2022-11-30T20:58:32.396Z,7.00
2022-11-30T21:01:00.304Z,7.00
2022-11-30T21:03:28.031Z,7.00
2022-11-30T21:05:55.000Z,7.00
2022-11-30T21:08:21.754Z,7.00
2022-11-30T21:10:48.608Z,7.00
2022-11-30T21:13:15.361Z,7.00
2022-11-30T21:15:42.261Z,7.00
2022-11-30T21:18:09.338Z,6.90
2022-11-30T21:20:36.093Z,7.00
2022-11-30T21:23:02.838Z,7.00
2022-11-30T21:25:29.680Z,7.00
2022-11-30T21:27:56.410Z,6.90
2022-11-30T21:30:23.266Z,6.90
2022-11-30T21:32:50.041Z,6.90
2022-11-30T21:35:16.806Z,7.00
2022-11-30T21:37:43.602Z,7.00
2022-11-30T21:40:10.922Z,7.00
2022-11-30T21:42:37.796Z,7.00
2022-11-30T21:45:05.040Z,6.90
2022-11-30T21:47:32.499Z,6.90
2022-11-30T21:49:59.717Z,6.90
2022-11-30T21:52:26.765Z,6.90
2022-11-30T21:54:53.835Z,7.00
2022-11-30T21:57:21.897Z,7.00
2022-11-30T21:59:48.939Z,7.00
2022-11-30T22:02:15.889Z,6.90
2022-11-30T22:04:42.659Z,6.90
2022-11-30T22:07:12.963Z,6.90
2022-11-30T22:09:39.720Z,6.90
2022-11-30T22:12:06.607Z,6.90
2022-11-30T22:14:36.173Z,6.90
2022-11-30T22:17:02.957Z,6.90
2022-11-30T22:19:29.717Z,6.80
2022-11-30T22:21:56.530Z,6.90
2022-11-30T22:24:23.268Z,6.90
2022-11-30T22:26:50.093Z,6.80
2022-11-30T22:29:22.451Z,6.90
2022-11-30T22:31:52.117Z,6.90
2022-11-30T22:34:20.142Z,6.90
2022-11-30T22:36:47.492Z,6.90
2022-11-30T22:39:21.384Z,6.90
2022-11-30T22:41:54.575Z,6.90
2022-11-30T22:44:21.935Z,6.80
2022-11-30T22:46:48.684Z,6.80
2022-11-30T22:49:21.301Z,6.80
2022-11-30T22:51:49.606Z,6.70
2022-11-30T22:54:16.666Z,6.70
2022-11-30T22:56:44.144Z,6.80
2022-11-30T22:59:12.777Z,6.80
2022-11-30T23:01:42.779Z,6.90
2022-11-30T23:04:12.358Z,6.90
2022-11-30T23:06:40.881Z,6.80
2022-11-30T23:09:10.601Z,6.80
2022-11-30T23:11:37.382Z,6.80
2022-11-30T23:14:08.206Z,6.70
2022-11-30T23:16:36.631Z,6.70
2022-11-30T23:19:04.345Z,6.60
2022-11-30T23:21:38.936Z,6.60
2022-11-30T23:24:09.072Z,6.70
2022-11-30T23:26:37.832Z,6.70
2022-11-30T23:29:10.819Z,6.70
2022-11-30T23:31:38.909Z,6.60
2022-11-30T23:34:08.295Z,6.60
2022-11-30T23:36:35.981Z,6.70
2022-11-30T23:39:09.443Z,6.70
2022-11-30T23:41:36.480Z,6.70
2022-11-30T23:44:03.786Z,6.60
2022-11-30T23:46:31.114Z,6.60
2022-11-30T23:48:57.875Z,6.60
2022-11-30T23:51:24.953Z,6.70
2022-11-30T23:53:52.064Z,6.70
2022-11-30T23:56:20.874Z,6.70
2022-11-30T23:58:47.923Z,6.50
